sensor_id;sensor_type;location;lat;lon;timestamp;P1;durP1;ratioP1;P2;durP2;ratioP2
9032;SDS011;4551;53.164;8.210;2022-07-22T00:01:05;4.73;;;2.37;;
9032;SDS011;4551;53.164;8.210;2022-07-22T00:03:33;2.57;;;2.37;;
9032;SDS011;4551;53.164;8.210;2022-07-22T00:06:01;3.73;;;2.77;;
9032;SDS011;4551;53.164;8.210;2022-07-22T00:08:31;4.40;;;2.50;;
9032;SDS011;4551;53.164;8.210;2022-07-22T00:10:59;3.50;;;2.47;;
9032;SDS011;4551;53.164;8.210;2022-07-22T00:13:27;3.00;;;2.40;;
9032;SDS011;4551;53.164;8.210;2022-07-22T00:15:56;3.73;;;2.40;;
9032;SDS011;4551;53.164;8.210;2022-07-22T00:18:24;5.80;;;2.60;;
9032;SDS011;4551;53.164;8.210;2022-07-22T00:20:52;3.43;;;2.10;;
9032;SDS011;4551;53.164;8.210;2022-07-22T00:23:21;4.53;;;2.30;;
9032;SDS011;4551;53.164;8.210;2022-07-22T00:25:50;3.30;;;2.23;;
9032;SDS011;4551;53.164;8.210;2022-07-22T00:28:20;4.80;;;2.50;;
9032;SDS011;4551;53.164;8.210;2022-07-22T00:30:48;5.43;;;2.60;;
9032;SDS011;4551;53.164;8.210;2022-07-22T00:33:19;5.87;;;2.70;;
9032;SDS011;4551;53.164;8.210;2022-07-22T00:35:47;6.00;;;2.80;;
9032;SDS011;4551;53.164;8.210;2022-07-22T00:38:16;3.47;;;2.53;;
9032;SDS011;4551;53.164;8.210;2022-07-22T00:40:44;3.23;;;2.60;;
9032;SDS011;4551;53.164;8.210;2022-07-22T00:43:13;4.17;;;2.20;;
9032;SDS011;4551;53.164;8.210;2022-07-22T00:45:41;3.40;;;2.57;;
9032;SDS011;4551;53.164;8.210;2022-07-22T00:48:11;4.47;;;2.50;;
9032;SDS011;4551;53.164;8.210;2022-07-22T00:50:39;4.00;;;2.40;;
9032;SDS011;4551;53.164;8.210;2022-07-22T00:53:07;5.00;;;2.17;;
9032;SDS011;4551;53.164;8.210;2022-07-22T00:55:36;5.57;;;2.00;;
9032;SDS011;4551;53.164;8.210;2022-07-22T00:58:05;5.90;;;2.13;;
9032;SDS011;4551;53.164;8.210;2022-07-22T01:00:34;2.13;;;1.90;;
9032;SDS011;4551;53.164;8.210;2022-07-22T01:03:02;3.33;;;2.17;;
9032;SDS011;4551;53.164;8.210;2022-07-22T01:05:31;3.20;;;1.90;;
9032;SDS011;4551;53.164;8.210;2022-07-22T01:07:59;3.40;;;1.90;;
9032;SDS011;4551;53.164;8.210;2022-07-22T01:10:27;3.43;;;1.90;;
9032;SDS011;4551;53.164;8.210;2022-07-22T01:12:55;3.37;;;1.83;;
9032;SDS011;4551;53.164;8.210;2022-07-22T01:15:23;4.13;;;2.43;;
9032;SDS011;4551;53.164;8.210;2022-07-22T01:17:53;6.43;;;2.67;;
9032;SDS011;4551;53.164;8.210;2022-07-22T01:20:22;4.20;;;2.20;;
9032;SDS011;4551;53.164;8.210;2022-07-22T01:22:52;2.50;;;1.90;;
9032;SDS011;4551;53.164;8.210;2022-07-22T01:25:20;7.23;;;1.93;;
9032;SDS011;4551;53.164;8.210;2022-07-22T01:27:48;4.47;;;2.13;;
9032;SDS011;4551;53.164;8.210;2022-07-22T01:30:16;6.90;;;2.20;;
9032;SDS011;4551;53.164;8.210;2022-07-22T01:32:45;4.53;;;1.83;;
9032;SDS011;4551;53.164;8.210;2022-07-22T01:35:13;2.73;;;1.73;;
9032;SDS011;4551;53.164;8.210;2022-07-22T01:37:42;3.37;;;1.90;;
9032;SDS011;4551;53.164;8.210;2022-07-22T01:40:11;5.50;;;2.03;;
9032;SDS011;4551;53.164;8.210;2022-07-22T01:42:40;6.30;;;1.93;;
9032;SDS011;4551;53.164;8.210;2022-07-22T01:45:08;3.67;;;2.00;;
9032;SDS011;4551;53.164;8.210;2022-07-22T01:47:37;5.77;;;2.03;;
9032;SDS011;4551;53.164;8.210;2022-07-22T01:50:05;17.50;;;2.60;;
9032;SDS011;4551;53.164;8.210;2022-07-22T01:52:37;6.27;;;2.20;;
9032;SDS011;4551;53.164;8.210;2022-07-22T01:55:08;4.87;;;2.70;;
9032;SDS011;4551;53.164;8.210;2022-07-22T01:57:37;4.50;;;2.47;;
9032;SDS011;4551;53.164;8.210;2022-07-22T02:00:06;6.63;;;2.70;;
9032;SDS011;4551;53.164;8.210;2022-07-22T02:02:36;6.37;;;2.50;;
9032;SDS011;4551;53.164;8.210;2022-07-22T02:05:05;6.90;;;2.20;;
9032;SDS011;4551;53.164;8.210;2022-07-22T02:07:33;5.83;;;2.70;;
9032;SDS011;4551;53.164;8.210;2022-07-22T02:10:02;6.87;;;2.37;;
9032;SDS011;4551;53.164;8.210;2022-07-22T02:12:32;5.17;;;2.30;;
9032;SDS011;4551;53.164;8.210;2022-07-22T02:15:00;7.37;;;2.43;;
9032;SDS011;4551;53.164;8.210;2022-07-22T02:17:29;7.93;;;2.70;;
9032;SDS011;4551;53.164;8.210;2022-07-22T02:19:57;4.73;;;1.97;;
9032;SDS011;4551;53.164;8.210;2022-07-22T02:22:25;5.93;;;2.37;;
9032;SDS011;4551;53.164;8.210;2022-07-22T02:24:53;4.10;;;2.23;;
9032;SDS011;4551;53.164;8.210;2022-07-22T02:27:21;5.27;;;2.27;;
9032;SDS011;4551;53.164;8.210;2022-07-22T02:29:52;6.03;;;2.17;;
9032;SDS011;4551;53.164;8.210;2022-07-22T02:32:20;3.47;;;2.03;;
9032;SDS011;4551;53.164;8.210;2022-07-22T02:34:48;4.33;;;2.30;;
9032;SDS011;4551;53.164;8.210;2022-07-22T02:37:17;3.67;;;1.80;;
9032;SDS011;4551;53.164;8.210;2022-07-22T02:39:45;4.37;;;2.00;;
9032;SDS011;4551;53.164;8.210;2022-07-22T02:42:14;4.77;;;2.00;;
9032;SDS011;4551;53.164;8.210;2022-07-22T02:44:42;4.50;;;2.00;;
9032;SDS011;4551;53.164;8.210;2022-07-22T02:47:11;5.80;;;2.10;;
9032;SDS011;4551;53.164;8.210;2022-07-22T02:49:40;5.00;;;2.13;;
9032;SDS011;4551;53.164;8.210;2022-07-22T02:52:08;5.13;;;2.43;;
9032;SDS011;4551;53.164;8.210;2022-07-22T02:54:36;2.80;;;2.13;;
9032;SDS011;4551;53.164;8.210;2022-07-22T02:57:04;3.87;;;2.40;;
9032;SDS011;4551;53.164;8.210;2022-07-22T02:59:32;6.43;;;1.97;;
9032;SDS011;4551;53.164;8.210;2022-07-22T03:02:00;5.10;;;2.20;;
9032;SDS011;4551;53.164;8.210;2022-07-22T03:04:30;5.67;;;2.67;;
9032;SDS011;4551;53.164;8.210;2022-07-22T03:06:58;3.73;;;2.13;;
9032;SDS011;4551;53.164;8.210;2022-07-22T03:09:26;6.30;;;2.33;;
9032;SDS011;4551;53.164;8.210;2022-07-22T03:11:54;6.80;;;2.30;;
9032;SDS011;4551;53.164;8.210;2022-07-22T03:14:22;3.97;;;2.13;;
9032;SDS011;4551;53.164;8.210;2022-07-22T03:16:50;5.00;;;2.53;;
9032;SDS011;4551;53.164;8.210;2022-07-22T03:19:19;4.93;;;2.10;;
9032;SDS011;4551;53.164;8.210;2022-07-22T03:21:48;4.90;;;2.50;;
9032;SDS011;4551;53.164;8.210;2022-07-22T03:24:16;6.63;;;2.27;;
9032;SDS011;4551;53.164;8.210;2022-07-22T03:26:44;6.70;;;2.83;;
9032;SDS011;4551;53.164;8.210;2022-07-22T03:29:12;6.33;;;2.80;;
9032;SDS011;4551;53.164;8.210;2022-07-22T03:31:41;9.33;;;2.63;;
9032;SDS011;4551;53.164;8.210;2022-07-22T03:34:09;2.87;;;2.27;;
9032;SDS011;4551;53.164;8.210;2022-07-22T03:36:37;3.87;;;2.10;;
9032;SDS011;4551;53.164;8.210;2022-07-22T03:39:06;9.20;;;2.80;;
9032;SDS011;4551;53.164;8.210;2022-07-22T03:41:34;5.73;;;2.63;;
9032;SDS011;4551;53.164;8.210;2022-07-22T03:44:03;4.40;;;2.23;;
9032;SDS011;4551;53.164;8.210;2022-07-22T03:46:31;5.07;;;2.60;;
9032;SDS011;4551;53.164;8.210;2022-07-22T03:48:59;3.43;;;2.40;;
9032;SDS011;4551;53.164;8.210;2022-07-22T03:51:27;3.90;;;2.57;;
9032;SDS011;4551;53.164;8.210;2022-07-22T03:54:00;5.90;;;2.37;;
9032;SDS011;4551;53.164;8.210;2022-07-22T03:56:30;5.73;;;2.97;;
9032;SDS011;4551;53.164;8.210;2022-07-22T03:58:58;8.20;;;2.57;;
9032;SDS011;4551;53.164;8.210;2022-07-22T04:01:26;4.77;;;2.70;;
9032;SDS011;4551;53.164;8.210;2022-07-22T04:03:54;5.27;;;2.67;;
9032;SDS011;4551;53.164;8.210;2022-07-22T04:06:29;5.63;;;3.00;;
9032;SDS011;4551;53.164;8.210;2022-07-22T04:08:57;5.43;;;2.63;;
9032;SDS011;4551;53.164;8.210;2022-07-22T04:11:26;6.77;;;2.40;;
9032;SDS011;4551;53.164;8.210;2022-07-22T04:13:56;4.90;;;2.87;;
9032;SDS011;4551;53.164;8.210;2022-07-22T04:16:24;7.00;;;2.57;;
9032;SDS011;4551;53.164;8.210;2022-07-22T04:18:52;7.53;;;2.33;;
9032;SDS011;4551;53.164;8.210;2022-07-22T04:21:21;3.80;;;3.30;;
9032;SDS011;4551;53.164;8.210;2022-07-22T04:23:49;8.73;;;3.23;;
9032;SDS011;4551;53.164;8.210;2022-07-22T04:26:17;3.17;;;2.30;;
9032;SDS011;4551;53.164;8.210;2022-07-22T04:28:45;4.57;;;2.37;;
9032;SDS011;4551;53.164;8.210;2022-07-22T04:31:15;6.43;;;2.30;;
9032;SDS011;4551;53.164;8.210;2022-07-22T04:33:43;3.33;;;2.80;;
9032;SDS011;4551;53.164;8.210;2022-07-22T04:36:11;4.70;;;2.63;;
9032;SDS011;4551;53.164;8.210;2022-07-22T04:38:41;6.23;;;2.70;;
9032;SDS011;4551;53.164;8.210;2022-07-22T04:41:10;6.17;;;2.60;;
9032;SDS011;4551;53.164;8.210;2022-07-22T04:43:38;7.80;;;2.63;;
9032;SDS011;4551;53.164;8.210;2022-07-22T04:46:06;4.87;;;2.93;;
9032;SDS011;4551;53.164;8.210;2022-07-22T04:48:35;7.93;;;3.00;;
9032;SDS011;4551;53.164;8.210;2022-07-22T04:51:03;8.07;;;2.60;;
9032;SDS011;4551;53.164;8.210;2022-07-22T04:53:32;6.80;;;2.63;;
9032;SDS011;4551;53.164;8.210;2022-07-22T04:56:13;6.83;;;3.10;;
9032;SDS011;4551;53.164;8.210;2022-07-22T04:58:42;5.97;;;2.80;;
9032;SDS011;4551;53.164;8.210;2022-07-22T05:01:10;6.17;;;3.03;;
9032;SDS011;4551;53.164;8.210;2022-07-22T05:03:42;7.63;;;2.93;;
9032;SDS011;4551;53.164;8.210;2022-07-22T05:06:10;7.63;;;4.40;;
9032;SDS011;4551;53.164;8.210;2022-07-22T05:08:38;7.60;;;3.30;;
9032;SDS011;4551;53.164;8.210;2022-07-22T05:11:06;5.97;;;3.10;;
9032;SDS011;4551;53.164;8.210;2022-07-22T05:13:34;6.30;;;3.50;;
9032;SDS011;4551;53.164;8.210;2022-07-22T05:16:03;6.67;;;3.17;;
9032;SDS011;4551;53.164;8.210;2022-07-22T05:18:31;5.60;;;2.80;;
9032;SDS011;4551;53.164;8.210;2022-07-22T05:21:01;6.40;;;3.00;;
9032;SDS011;4551;53.164;8.210;2022-07-22T05:23:30;6.73;;;3.00;;
9032;SDS011;4551;53.164;8.210;2022-07-22T05:25:58;5.33;;;2.73;;
9032;SDS011;4551;53.164;8.210;2022-07-22T05:28:26;6.70;;;2.90;;
9032;SDS011;4551;53.164;8.210;2022-07-22T05:30:54;7.00;;;3.10;;
9032;SDS011;4551;53.164;8.210;2022-07-22T05:33:22;6.23;;;3.30;;
9032;SDS011;4551;53.164;8.210;2022-07-22T05:35:51;9.47;;;3.33;;
9032;SDS011;4551;53.164;8.210;2022-07-22T05:38:20;6.00;;;2.83;;
9032;SDS011;4551;53.164;8.210;2022-07-22T05:40:48;9.13;;;3.00;;
9032;SDS011;4551;53.164;8.210;2022-07-22T05:43:16;5.40;;;2.97;;
9032;SDS011;4551;53.164;8.210;2022-07-22T05:45:48;7.13;;;3.20;;
9032;SDS011;4551;53.164;8.210;2022-07-22T05:48:16;8.67;;;2.77;;
9032;SDS011;4551;53.164;8.210;2022-07-22T05:50:44;6.00;;;2.97;;
9032;SDS011;4551;53.164;8.210;2022-07-22T05:53:13;5.73;;;2.70;;
9032;SDS011;4551;53.164;8.210;2022-07-22T05:55:43;9.87;;;2.90;;
9032;SDS011;4551;53.164;8.210;2022-07-22T05:58:13;5.30;;;2.63;;
9032;SDS011;4551;53.164;8.210;2022-07-22T06:00:41;6.60;;;2.57;;
9032;SDS011;4551;53.164;8.210;2022-07-22T06:03:09;4.93;;;2.67;;
9032;SDS011;4551;53.164;8.210;2022-07-22T06:05:45;4.27;;;2.67;;
9032;SDS011;4551;53.164;8.210;2022-07-22T06:08:13;3.37;;;2.40;;
9032;SDS011;4551;53.164;8.210;2022-07-22T06:10:42;6.43;;;2.57;;
9032;SDS011;4551;53.164;8.210;2022-07-22T06:13:11;4.07;;;2.83;;
9032;SDS011;4551;53.164;8.210;2022-07-22T06:15:39;5.40;;;2.73;;
9032;SDS011;4551;53.164;8.210;2022-07-22T06:18:07;8.77;;;2.93;;
9032;SDS011;4551;53.164;8.210;2022-07-22T06:20:35;9.70;;;3.00;;
9032;SDS011;4551;53.164;8.210;2022-07-22T06:23:03;6.03;;;2.80;;
9032;SDS011;4551;53.164;8.210;2022-07-22T06:25:32;5.97;;;2.23;;
9032;SDS011;4551;53.164;8.210;2022-07-22T06:28:11;7.00;;;3.63;;
9032;SDS011;4551;53.164;8.210;2022-07-22T06:30:39;6.97;;;2.33;;
9032;SDS011;4551;53.164;8.210;2022-07-22T06:33:08;6.30;;;2.57;;
9032;SDS011;4551;53.164;8.210;2022-07-22T06:35:38;7.57;;;2.53;;
9032;SDS011;4551;53.164;8.210;2022-07-22T06:38:07;5.83;;;2.60;;
9032;SDS011;4551;53.164;8.210;2022-07-22T06:40:54;9.77;;;2.90;;
9032;SDS011;4551;53.164;8.210;2022-07-22T06:43:24;6.10;;;2.37;;
9032;SDS011;4551;53.164;8.210;2022-07-22T06:45:53;5.17;;;2.57;;
9032;SDS011;4551;53.164;8.210;2022-07-22T06:48:22;5.17;;;2.07;;
9032;SDS011;4551;53.164;8.210;2022-07-22T06:50:50;6.67;;;2.43;;
9032;SDS011;4551;53.164;8.210;2022-07-22T06:53:19;5.63;;;2.37;;
9032;SDS011;4551;53.164;8.210;2022-07-22T06:55:47;4.33;;;2.43;;
9032;SDS011;4551;53.164;8.210;2022-07-22T06:58:16;3.90;;;2.17;;
9032;SDS011;4551;53.164;8.210;2022-07-22T07:00:45;3.93;;;2.10;;
9032;SDS011;4551;53.164;8.210;2022-07-22T07:03:14;5.20;;;1.90;;
9032;SDS011;4551;53.164;8.210;2022-07-22T07:06:00;4.17;;;2.20;;
9032;SDS011;4551;53.164;8.210;2022-07-22T07:08:29;4.00;;;2.03;;
9032;SDS011;4551;53.164;8.210;2022-07-22T07:10:57;6.37;;;2.27;;
9032;SDS011;4551;53.164;8.210;2022-07-22T07:13:27;6.60;;;2.27;;
9032;SDS011;4551;53.164;8.210;2022-07-22T07:15:57;5.67;;;2.13;;
9032;SDS011;4551;53.164;8.210;2022-07-22T07:18:25;2.43;;;2.00;;
9032;SDS011;4551;53.164;8.210;2022-07-22T07:20:53;5.40;;;2.20;;
9032;SDS011;4551;53.164;8.210;2022-07-22T07:23:21;5.50;;;2.47;;
9032;SDS011;4551;53.164;8.210;2022-07-22T07:25:50;5.53;;;2.60;;
9032;SDS011;4551;53.164;8.210;2022-07-22T07:28:19;5.30;;;2.17;;
9032;SDS011;4551;53.164;8.210;2022-07-22T07:30:48;6.00;;;2.00;;
9032;SDS011;4551;53.164;8.210;2022-07-22T07:33:18;4.87;;;2.30;;
9032;SDS011;4551;53.164;8.210;2022-07-22T07:35:46;6.10;;;2.60;;
9032;SDS011;4551;53.164;8.210;2022-07-22T07:38:14;6.03;;;2.60;;
9032;SDS011;4551;53.164;8.210;2022-07-22T07:40:43;5.13;;;2.23;;
9032;SDS011;4551;53.164;8.210;2022-07-22T07:43:11;3.93;;;2.40;;
9032;SDS011;4551;53.164;8.210;2022-07-22T07:45:39;5.47;;;2.17;;
9032;SDS011;4551;53.164;8.210;2022-07-22T07:48:08;4.30;;;2.67;;
9032;SDS011;4551;53.164;8.210;2022-07-22T07:50:37;6.33;;;2.20;;
9032;SDS011;4551;53.164;8.210;2022-07-22T07:53:06;5.50;;;2.20;;
9032;SDS011;4551;53.164;8.210;2022-07-22T07:55:35;5.00;;;2.20;;
9032;SDS011;4551;53.164;8.210;2022-07-22T07:58:05;5.93;;;2.07;;
9032;SDS011;4551;53.164;8.210;2022-07-22T08:00:33;3.47;;;2.10;;
9032;SDS011;4551;53.164;8.210;2022-07-22T08:03:01;3.13;;;1.83;;
9032;SDS011;4551;53.164;8.210;2022-07-22T08:05:32;2.83;;;1.77;;
9032;SDS011;4551;53.164;8.210;2022-07-22T08:08:02;7.27;;;2.17;;
9032;SDS011;4551;53.164;8.210;2022-07-22T08:10:40;4.17;;;1.90;;
9032;SDS011;4551;53.164;8.210;2022-07-22T08:13:24;6.00;;;2.10;;
9032;SDS011;4551;53.164;8.210;2022-07-22T08:15:52;6.00;;;1.60;;
9032;SDS011;4551;53.164;8.210;2022-07-22T08:18:20;3.63;;;1.83;;
9032;SDS011;4551;53.164;8.210;2022-07-22T08:20:49;2.60;;;1.50;;
9032;SDS011;4551;53.164;8.210;2022-07-22T08:23:18;4.03;;;1.80;;
9032;SDS011;4551;53.164;8.210;2022-07-22T08:25:46;6.23;;;2.43;;
9032;SDS011;4551;53.164;8.210;2022-07-22T08:28:15;6.93;;;1.83;;
9032;SDS011;4551;53.164;8.210;2022-07-22T08:30:43;4.33;;;1.70;;
9032;SDS011;4551;53.164;8.210;2022-07-22T08:33:11;4.40;;;1.90;;
9032;SDS011;4551;53.164;8.210;2022-07-22T08:35:39;3.73;;;1.70;;
9032;SDS011;4551;53.164;8.210;2022-07-22T08:38:08;2.83;;;1.93;;
9032;SDS011;4551;53.164;8.210;2022-07-22T08:40:38;5.63;;;2.10;;
9032;SDS011;4551;53.164;8.210;2022-07-22T08:43:06;5.63;;;2.10;;
9032;SDS011;4551;53.164;8.210;2022-07-22T08:45:34;3.17;;;1.60;;
9032;SDS011;4551;53.164;8.210;2022-07-22T08:48:03;2.77;;;1.80;;
9032;SDS011;4551;53.164;8.210;2022-07-22T08:50:33;6.77;;;2.03;;
9032;SDS011;4551;53.164;8.210;2022-07-22T08:53:02;4.47;;;2.10;;
9032;SDS011;4551;53.164;8.210;2022-07-22T08:55:31;2.47;;;1.67;;
9032;SDS011;4551;53.164;8.210;2022-07-22T08:58:00;5.40;;;1.80;;
9032;SDS011;4551;53.164;8.210;2022-07-22T09:00:28;4.33;;;2.27;;
9032;SDS011;4551;53.164;8.210;2022-07-22T09:02:57;3.43;;;1.60;;
9032;SDS011;4551;53.164;8.210;2022-07-22T09:05:25;6.23;;;2.20;;
9032;SDS011;4551;53.164;8.210;2022-07-22T09:08:11;3.10;;;1.70;;
9032;SDS011;4551;53.164;8.210;2022-07-22T09:10:40;5.93;;;1.93;;
9032;SDS011;4551;53.164;8.210;2022-07-22T09:13:10;3.37;;;1.57;;
9032;SDS011;4551;53.164;8.210;2022-07-22T09:15:40;3.77;;;1.80;;
9032;SDS011;4551;53.164;8.210;2022-07-22T09:18:14;3.20;;;1.63;;
9032;SDS011;4551;53.164;8.210;2022-07-22T09:20:42;3.67;;;1.70;;
9032;SDS011;4551;53.164;8.210;2022-07-22T09:23:11;4.00;;;1.50;;
9032;SDS011;4551;53.164;8.210;2022-07-22T09:25:41;2.87;;;1.70;;
9032;SDS011;4551;53.164;8.210;2022-07-22T09:28:12;3.33;;;1.37;;
9032;SDS011;4551;53.164;8.210;2022-07-22T09:30:46;3.53;;;1.90;;
9032;SDS011;4551;53.164;8.210;2022-07-22T09:33:17;2.60;;;1.33;;
9032;SDS011;4551;53.164;8.210;2022-07-22T09:35:46;4.47;;;1.77;;
9032;SDS011;4551;53.164;8.210;2022-07-22T09:38:18;3.87;;;1.70;;
9032;SDS011;4551;53.164;8.210;2022-07-22T09:40:54;2.87;;;1.30;;
9032;SDS011;4551;53.164;8.210;2022-07-22T09:43:24;2.90;;;1.50;;
9032;SDS011;4551;53.164;8.210;2022-07-22T09:45:58;1.83;;;1.50;;
9032;SDS011;4551;53.164;8.210;2022-07-22T09:48:26;4.67;;;1.73;;
9032;SDS011;4551;53.164;8.210;2022-07-22T09:50:55;4.63;;;1.97;;
9032;SDS011;4551;53.164;8.210;2022-07-22T09:53:24;4.77;;;1.80;;
9032;SDS011;4551;53.164;8.210;2022-07-22T09:55:55;1.43;;;1.30;;
9032;SDS011;4551;53.164;8.210;2022-07-22T09:58:26;3.37;;;1.60;;
9032;SDS011;4551;53.164;8.210;2022-07-22T10:00:59;3.70;;;1.90;;
9032;SDS011;4551;53.164;8.210;2022-07-22T10:03:32;3.33;;;1.70;;
9032;SDS011;4551;53.164;8.210;2022-07-22T10:06:04;3.87;;;1.57;;
9032;SDS011;4551;53.164;8.210;2022-07-22T10:08:33;2.80;;;1.40;;
9032;SDS011;4551;53.164;8.210;2022-07-22T10:11:02;3.00;;;2.20;;
9032;SDS011;4551;53.164;8.210;2022-07-22T10:13:35;3.13;;;1.90;;
9032;SDS011;4551;53.164;8.210;2022-07-22T10:16:07;4.23;;;2.20;;
9032;SDS011;4551;53.164;8.210;2022-07-22T10:18:36;2.17;;;1.97;;
9032;SDS011;4551;53.164;8.210;2022-07-22T10:21:05;6.33;;;1.97;;
9032;SDS011;4551;53.164;8.210;2022-07-22T10:23:35;3.73;;;2.10;;
9032;SDS011;4551;53.164;8.210;2022-07-22T10:26:04;2.03;;;1.60;;
9032;SDS011;4551;53.164;8.210;2022-07-22T10:28:33;4.27;;;1.83;;
9032;SDS011;4551;53.164;8.210;2022-07-22T10:33:50;3.53;;;1.60;;
9032;SDS011;4551;53.164;8.210;2022-07-22T10:36:31;6.57;;;1.87;;
9032;SDS011;4551;53.164;8.210;2022-07-22T10:39:04;3.87;;;1.80;;
9032;SDS011;4551;53.164;8.210;2022-07-22T10:41:35;2.33;;;1.80;;
9032;SDS011;4551;53.164;8.210;2022-07-22T10:44:05;3.47;;;1.90;;
9032;SDS011;4551;53.164;8.210;2022-07-22T10:46:50;4.10;;;1.90;;
9032;SDS011;4551;53.164;8.210;2022-07-22T10:49:21;6.47;;;2.17;;
9032;SDS011;4551;53.164;8.210;2022-07-22T10:52:10;2.60;;;1.50;;
9032;SDS011;4551;53.164;8.210;2022-07-22T10:57:46;2.83;;;1.40;;
9032;SDS011;4551;53.164;8.210;2022-07-22T11:00:17;1.67;;;1.10;;
9032;SDS011;4551;53.164;8.210;2022-07-22T11:02:45;2.53;;;1.57;;
9032;SDS011;4551;53.164;8.210;2022-07-22T11:05:14;4.23;;;1.57;;
9032;SDS011;4551;53.164;8.210;2022-07-22T11:07:51;3.33;;;1.80;;
9032;SDS011;4551;53.164;8.210;2022-07-22T11:10:19;3.20;;;1.77;;
9032;SDS011;4551;53.164;8.210;2022-07-22T11:12:48;2.93;;;1.33;;
9032;SDS011;4551;53.164;8.210;2022-07-22T11:15:18;4.30;;;1.50;;
9032;SDS011;4551;53.164;8.210;2022-07-22T11:17:55;2.57;;;1.27;;
9032;SDS011;4551;53.164;8.210;2022-07-22T11:20:23;3.87;;;1.40;;
9032;SDS011;4551;53.164;8.210;2022-07-22T11:22:52;4.97;;;1.50;;
9032;SDS011;4551;53.164;8.210;2022-07-22T11:25:24;4.57;;;1.53;;
9032;SDS011;4551;53.164;8.210;2022-07-22T11:27:53;3.67;;;1.63;;
9032;SDS011;4551;53.164;8.210;2022-07-22T11:30:25;6.10;;;1.80;;
9032;SDS011;4551;53.164;8.210;2022-07-22T11:32:54;5.70;;;2.23;;
9032;SDS011;4551;53.164;8.210;2022-07-22T11:35:22;2.10;;;1.60;;
9032;SDS011;4551;53.164;8.210;2022-07-22T11:37:59;5.23;;;1.77;;
9032;SDS011;4551;53.164;8.210;2022-07-22T11:40:31;4.10;;;1.70;;
9032;SDS011;4551;53.164;8.210;2022-07-22T11:43:03;6.30;;;1.80;;
9032;SDS011;4551;53.164;8.210;2022-07-22T11:45:32;2.90;;;1.33;;
9032;SDS011;4551;53.164;8.210;2022-07-22T11:48:07;1.70;;;1.23;;
9032;SDS011;4551;53.164;8.210;2022-07-22T11:50:36;3.70;;;1.43;;
9032;SDS011;4551;53.164;8.210;2022-07-22T11:53:04;3.60;;;1.70;;
9032;SDS011;4551;53.164;8.210;2022-07-22T11:55:33;3.10;;;1.47;;
9032;SDS011;4551;53.164;8.210;2022-07-22T11:58:02;4.83;;;1.80;;
9032;SDS011;4551;53.164;8.210;2022-07-22T12:00:30;4.93;;;1.63;;
9032;SDS011;4551;53.164;8.210;2022-07-22T12:03:00;2.83;;;1.70;;
9032;SDS011;4551;53.164;8.210;2022-07-22T12:05:29;2.23;;;1.20;;
9032;SDS011;4551;53.164;8.210;2022-07-22T12:07:58;2.97;;;1.53;;
9032;SDS011;4551;53.164;8.210;2022-07-22T12:10:26;4.57;;;1.50;;
9032;SDS011;4551;53.164;8.210;2022-07-22T12:12:55;2.83;;;1.30;;
9032;SDS011;4551;53.164;8.210;2022-07-22T12:15:23;5.17;;;1.87;;
9032;SDS011;4551;53.164;8.210;2022-07-22T12:18:16;1.93;;;1.60;;
9032;SDS011;4551;53.164;8.210;2022-07-22T12:20:46;2.87;;;1.30;;
9032;SDS011;4551;53.164;8.210;2022-07-22T12:23:20;1.40;;;1.20;;
9032;SDS011;4551;53.164;8.210;2022-07-22T12:25:49;4.97;;;1.90;;
9032;SDS011;4551;53.164;8.210;2022-07-22T12:28:21;3.40;;;1.60;;
9032;SDS011;4551;53.164;8.210;2022-07-22T12:30:50;3.60;;;1.50;;
9032;SDS011;4551;53.164;8.210;2022-07-22T12:33:21;3.43;;;1.43;;
9032;SDS011;4551;53.164;8.210;2022-07-22T12:36:00;3.07;;;1.60;;
9032;SDS011;4551;53.164;8.210;2022-07-22T12:38:30;1.63;;;1.30;;
9032;SDS011;4551;53.164;8.210;2022-07-22T12:43:51;7.13;;;1.53;;
9032;SDS011;4551;53.164;8.210;2022-07-22T12:46:20;1.80;;;1.53;;
9032;SDS011;4551;53.164;8.210;2022-07-22T12:48:54;1.17;;;1.03;;
9032;SDS011;4551;53.164;8.210;2022-07-22T12:51:26;2.83;;;1.40;;
9032;SDS011;4551;53.164;8.210;2022-07-22T12:53:55;1.97;;;1.57;;
9032;SDS011;4551;53.164;8.210;2022-07-22T12:56:26;2.97;;;1.23;;
9032;SDS011;4551;53.164;8.210;2022-07-22T12:59:00;2.67;;;1.30;;
9032;SDS011;4551;53.164;8.210;2022-07-22T13:01:28;3.03;;;1.40;;
9032;SDS011;4551;53.164;8.210;2022-07-22T13:03:58;1.43;;;1.00;;
9032;SDS011;4551;53.164;8.210;2022-07-22T13:06:27;4.00;;;1.30;;
9032;SDS011;4551;53.164;8.210;2022-07-22T13:08:55;2.60;;;1.90;;
9032;SDS011;4551;53.164;8.210;2022-07-22T13:11:23;3.33;;;1.30;;
9032;SDS011;4551;53.164;8.210;2022-07-22T13:13:51;2.60;;;1.60;;
9032;SDS011;4551;53.164;8.210;2022-07-22T13:16:20;4.67;;;1.63;;
9032;SDS011;4551;53.164;8.210;2022-07-22T13:18:49;5.27;;;1.40;;
9032;SDS011;4551;53.164;8.210;2022-07-22T13:21:19;1.97;;;1.47;;
9032;SDS011;4551;53.164;8.210;2022-07-22T13:23:47;2.17;;;1.50;;
9032;SDS011;4551;53.164;8.210;2022-07-22T13:26:15;3.90;;;1.67;;
9032;SDS011;4551;53.164;8.210;2022-07-22T13:28:44;4.97;;;1.50;;
9032;SDS011;4551;53.164;8.210;2022-07-22T13:31:12;3.53;;;1.50;;
9032;SDS011;4551;53.164;8.210;2022-07-22T13:33:40;4.20;;;1.53;;
9032;SDS011;4551;53.164;8.210;2022-07-22T13:36:08;3.07;;;1.40;;
9032;SDS011;4551;53.164;8.210;2022-07-22T13:38:38;6.87;;;1.60;;
9032;SDS011;4551;53.164;8.210;2022-07-22T13:41:06;3.93;;;2.07;;
9032;SDS011;4551;53.164;8.210;2022-07-22T13:43:43;2.70;;;1.70;;
9032;SDS011;4551;53.164;8.210;2022-07-22T13:46:11;3.67;;;1.50;;
9032;SDS011;4551;53.164;8.210;2022-07-22T13:48:40;2.90;;;1.20;;
9032;SDS011;4551;53.164;8.210;2022-07-22T13:51:08;1.53;;;1.33;;
9032;SDS011;4551;53.164;8.210;2022-07-22T13:53:38;4.30;;;2.20;;
9032;SDS011;4551;53.164;8.210;2022-07-22T13:56:07;2.83;;;1.40;;
9032;SDS011;4551;53.164;8.210;2022-07-22T13:58:37;6.03;;;1.50;;
9032;SDS011;4551;53.164;8.210;2022-07-22T14:01:07;4.47;;;1.30;;
9032;SDS011;4551;53.164;8.210;2022-07-22T14:03:36;2.93;;;1.40;;
9032;SDS011;4551;53.164;8.210;2022-07-22T14:06:05;4.17;;;1.80;;
9032;SDS011;4551;53.164;8.210;2022-07-22T14:08:35;2.33;;;1.57;;
9032;SDS011;4551;53.164;8.210;2022-07-22T14:11:07;1.93;;;1.40;;
9032;SDS011;4551;53.164;8.210;2022-07-22T14:13:36;4.53;;;1.80;;
9032;SDS011;4551;53.164;8.210;2022-07-22T14:16:06;2.17;;;1.47;;
9032;SDS011;4551;53.164;8.210;2022-07-22T14:19:12;2.93;;;1.60;;
9032;SDS011;4551;53.164;8.210;2022-07-22T14:21:42;3.33;;;1.40;;
9032;SDS011;4551;53.164;8.210;2022-07-22T14:24:11;2.80;;;1.20;;
9032;SDS011;4551;53.164;8.210;2022-07-22T14:26:41;1.47;;;1.33;;
9032;SDS011;4551;53.164;8.210;2022-07-22T14:29:09;4.30;;;1.60;;
9032;SDS011;4551;53.164;8.210;2022-07-22T14:31:38;2.73;;;2.03;;
9032;SDS011;4551;53.164;8.210;2022-07-22T14:34:06;1.30;;;1.23;;
9032;SDS011;4551;53.164;8.210;2022-07-22T14:36:34;2.27;;;1.27;;
9032;SDS011;4551;53.164;8.210;2022-07-22T14:39:03;3.10;;;1.60;;
9032;SDS011;4551;53.164;8.210;2022-07-22T14:41:31;1.30;;;1.10;;
9032;SDS011;4551;53.164;8.210;2022-07-22T14:44:01;4.33;;;1.77;;
9032;SDS011;4551;53.164;8.210;2022-07-22T14:46:29;3.63;;;1.50;;
9032;SDS011;4551;53.164;8.210;2022-07-22T14:48:58;1.40;;;1.30;;
9032;SDS011;4551;53.164;8.210;2022-07-22T14:51:26;2.80;;;1.40;;
9032;SDS011;4551;53.164;8.210;2022-07-22T14:53:55;2.30;;;1.50;;
9032;SDS011;4551;53.164;8.210;2022-07-22T14:56:23;2.00;;;1.80;;
9032;SDS011;4551;53.164;8.210;2022-07-22T14:58:52;2.83;;;1.60;;
9032;SDS011;4551;53.164;8.210;2022-07-22T15:01:21;2.63;;;1.73;;
9032;SDS011;4551;53.164;8.210;2022-07-22T15:03:53;1.50;;;1.40;;
9032;SDS011;4551;53.164;8.210;2022-07-22T15:06:22;2.00;;;1.60;;
9032;SDS011;4551;53.164;8.210;2022-07-22T15:08:50;5.33;;;2.30;;
9032;SDS011;4551;53.164;8.210;2022-07-22T15:11:18;2.50;;;1.60;;
9032;SDS011;4551;53.164;8.210;2022-07-22T15:13:47;2.50;;;1.73;;
9032;SDS011;4551;53.164;8.210;2022-07-22T15:16:15;2.87;;;2.13;;
9032;SDS011;4551;53.164;8.210;2022-07-22T15:18:45;3.50;;;1.93;;
9032;SDS011;4551;53.164;8.210;2022-07-22T15:21:13;3.40;;;1.93;;
9032;SDS011;4551;53.164;8.210;2022-07-22T15:23:42;2.03;;;1.80;;
9032;SDS011;4551;53.164;8.210;2022-07-22T15:26:11;4.67;;;1.80;;
9032;SDS011;4551;53.164;8.210;2022-07-22T15:28:39;2.23;;;1.67;;
9032;SDS011;4551;53.164;8.210;2022-07-22T15:31:09;2.63;;;1.90;;
9032;SDS011;4551;53.164;8.210;2022-07-22T15:33:37;2.80;;;1.40;;
9032;SDS011;4551;53.164;8.210;2022-07-22T15:36:07;3.17;;;1.40;;
9032;SDS011;4551;53.164;8.210;2022-07-22T15:38:38;5.10;;;1.77;;